createdAt,value
2022-08-03T00:00:20.689Z,16.97
2022-08-03T00:02:47.237Z,16.97
2022-08-03T00:05:13.750Z,16.95
2022-08-03T00:07:41.113Z,17.02
2022-08-03T00:10:07.990Z,17.12
2022-08-03T00:12:36.342Z,17.23
2022-08-03T00:15:03.457Z,17.30
2022-08-03T00:17:53.066Z,17.52
2022-08-03T00:20:21.280Z,17.64
2022-08-03T00:22:47.844Z,17.64
2022-08-03T00:25:14.373Z,17.82
2022-08-03T00:27:40.867Z,18.03
2022-08-03T00:30:08.251Z,17.89
2022-08-03T00:32:34.723Z,18.00
2022-08-03T00:35:01.167Z,17.92
2022-08-03T00:37:40.747Z,17.82
2022-08-03T00:40:10.510Z,17.74
2022-08-03T00:42:47.078Z,17.87
2022-08-03T00:45:13.625Z,17.97
2022-08-03T00:47:40.528Z,17.85
2022-08-03T00:50:07.245Z,17.81
2022-08-03T00:52:34.843Z,17.77
2022-08-03T00:55:02.604Z,17.79
2022-08-03T00:57:31.700Z,17.74
2022-08-03T01:00:00.058Z,17.76
2022-08-03T01:02:28.524Z,17.71
2022-08-03T01:04:56.125Z,17.75
2022-08-03T01:07:33.722Z,17.68
2022-08-03T01:10:10.142Z,17.63
2022-08-03T01:12:49.746Z,17.59
2022-08-03T01:15:24.904Z,17.58
2022-08-03T01:18:03.360Z,17.54
2022-08-03T01:20:34.096Z,17.60
2022-08-03T01:23:19.515Z,17.53
2022-08-03T01:26:23.525Z,17.49
2022-08-03T01:29:21.516Z,17.54
2022-08-03T01:32:58.802Z,17.45
2022-08-03T01:34:52.996Z,17.45
2022-08-03T01:37:26.429Z,17.44
2022-08-03T01:39:56.399Z,17.43
2022-08-03T01:42:24.009Z,17.47
2022-08-03T01:44:52.226Z,17.48
2022-08-03T01:47:22.435Z,17.49
2022-08-03T01:49:50.667Z,17.50
2022-08-03T01:52:18.506Z,17.46
2022-08-03T01:54:48.596Z,17.39
2022-08-03T01:57:16.590Z,17.44
2022-08-03T01:59:45.147Z,17.50
2022-08-03T02:02:27.941Z,17.43
2022-08-03T02:05:01.756Z,17.57
2022-08-03T02:07:30.402Z,17.47
2022-08-03T02:09:58.444Z,17.45
2022-08-03T02:12:28.291Z,17.48
2022-08-03T02:14:56.520Z,17.37
2022-08-03T02:17:39.112Z,17.34
2022-08-03T02:20:11.309Z,17.39
2022-08-03T02:22:41.009Z,17.25
2022-08-03T02:25:12.969Z,17.23
2022-08-03T02:27:56.447Z,17.27
2022-08-03T02:30:29.804Z,17.41
2022-08-03T02:32:59.328Z,17.51
2022-08-03T02:35:29.459Z,17.36
2022-08-03T02:38:02.750Z,17.44
2022-08-03T02:40:31.354Z,17.63
2022-08-03T02:43:07.559Z,17.44
2022-08-03T02:45:45.346Z,17.41
2022-08-03T02:48:12.897Z,17.45
2022-08-03T02:50:39.969Z,17.36
2022-08-03T02:53:07.880Z,17.36
2022-08-03T02:55:35.787Z,17.29
2022-08-03T02:58:11.711Z,17.19
2022-08-03T03:00:39.921Z,17.24
2022-08-03T03:03:06.532Z,17.24
2022-08-03T03:05:54.804Z,17.22
2022-08-03T03:08:25.963Z,17.35
2022-08-03T03:10:59.367Z,17.41
2022-08-03T03:13:28.605Z,17.39
2022-08-03T03:15:57.576Z,17.28
2022-08-03T03:18:25.358Z,17.27
2022-08-03T03:20:53.209Z,17.22
2022-08-03T03:23:22.187Z,17.29
2022-08-03T03:25:49.827Z,17.36
2022-08-03T03:28:16.907Z,17.36
2022-08-03T03:30:43.817Z,17.42
2022-08-03T03:33:10.496Z,17.48
2022-08-03T03:35:39.147Z,17.50
2022-08-03T03:38:06.768Z,17.46
2022-08-03T03:40:35.559Z,17.37
2022-08-03T03:43:02.793Z,17.36
2022-08-03T03:45:31.079Z,17.46
2022-08-03T03:47:59.575Z,17.48
2022-08-03T03:50:27.408Z,17.48
2022-08-03T03:52:53.931Z,17.48
2022-08-03T03:55:20.413Z,17.43
2022-08-03T03:57:46.934Z,17.52
2022-08-03T04:00:14.844Z,17.46
2022-08-03T04:02:41.457Z,17.47
2022-08-03T04:05:27.424Z,17.48
2022-08-03T04:08:30.803Z,17.46
2022-08-03T04:11:15.524Z,17.46
2022-08-03T04:14:06.424Z,17.50
2022-08-03T04:16:38.011Z,17.59
2022-08-03T04:19:24.708Z,17.62
2022-08-03T04:21:57.133Z,17.88
2022-08-03T04:24:27.074Z,17.91
2022-08-03T04:26:55.770Z,17.99
2022-08-03T04:29:22.619Z,18.03
2022-08-03T04:31:50.636Z,18.20
2022-08-03T04:34:17.515Z,18.23
2022-08-03T04:36:58.451Z,18.58
2022-08-03T04:39:26.718Z,18.67
2022-08-03T04:42:07.931Z,18.59
2022-08-03T04:44:41.090Z,18.82
2022-08-03T04:47:08.284Z,18.92
2022-08-03T04:49:36.769Z,19.08
2022-08-03T04:52:04.532Z,19.30
2022-08-03T04:54:31.266Z,19.47
2022-08-03T04:56:57.704Z,19.63
2022-08-03T04:59:24.183Z,19.60
2022-08-03T05:01:50.767Z,19.68
2022-08-03T05:04:17.273Z,19.74
2022-08-03T05:06:48.121Z,19.74
2022-08-03T05:09:49.857Z,19.88
2022-08-03T05:12:08.359Z,19.95
2022-08-03T05:14:37.664Z,20.03
2022-08-03T05:17:08.919Z,19.80
2022-08-03T05:19:35.409Z,19.67
2022-08-03T05:22:01.861Z,19.65
2022-08-03T05:24:28.350Z,19.70
2022-08-03T05:26:54.855Z,19.76
2022-08-03T05:29:21.310Z,19.90
2022-08-03T05:31:47.877Z,19.98
2022-08-03T05:34:14.369Z,20.08
2022-08-03T05:36:41.159Z,19.95
2022-08-03T05:39:07.667Z,20.02
2022-08-03T05:41:37.045Z,20.03
2022-08-03T05:44:04.380Z,20.08
2022-08-03T05:46:30.872Z,20.07
2022-08-03T05:48:57.445Z,20.21
2022-08-03T05:51:23.927Z,20.31
2022-08-03T05:53:50.509Z,20.38
2022-08-03T05:56:17.197Z,20.51
2022-08-03T05:58:45.441Z,20.53
2022-08-03T06:01:11.965Z,20.60
2022-08-03T06:03:38.532Z,20.54
2022-08-03T06:06:05.080Z,20.76
2022-08-03T06:08:31.576Z,20.80
2022-08-03T06:10:58.103Z,21.11
2022-08-03T06:13:24.563Z,21.16
2022-08-03T06:15:51.033Z,21.14
2022-08-03T06:18:17.839Z,21.15
2022-08-03T06:20:44.385Z,21.20
2022-08-03T06:23:17.825Z,21.50
2022-08-03T06:25:45.216Z,21.49
2022-08-03T06:28:35.402Z,21.61
2022-08-03T06:31:00.919Z,21.83
2022-08-03T06:33:48.564Z,21.77
2022-08-03T06:36:14.008Z,21.95
2022-08-03T06:38:40.447Z,22.04
2022-08-03T06:41:06.924Z,22.16
2022-08-03T06:43:37.470Z,22.23
2022-08-03T06:46:05.410Z,22.38
2022-08-03T06:48:32.002Z,22.46
2022-08-03T06:50:59.169Z,22.48
2022-08-03T06:53:25.652Z,22.62
2022-08-03T06:55:54.940Z,22.72
2022-08-03T06:58:22.291Z,22.90
2022-08-03T07:00:48.783Z,22.83
2022-08-03T07:03:16.085Z,22.90
2022-08-03T07:05:43.529Z,22.85
2022-08-03T07:08:10.099Z,22.85
2022-08-03T07:10:37.120Z,22.95
2022-08-03T07:13:04.456Z,23.06
2022-08-03T07:15:54.560Z,22.85
2022-08-03T07:18:17.618Z,23.05
2022-08-03T07:20:54.783Z,23.28
2022-08-03T07:23:21.259Z,23.27
2022-08-03T07:25:47.739Z,23.32
2022-08-03T07:28:14.341Z,23.40
2022-08-03T07:30:40.874Z,23.59
2022-08-03T07:33:07.432Z,23.55
2022-08-03T07:35:33.972Z,23.62
2022-08-03T07:38:00.549Z,23.61
2022-08-03T07:40:31.488Z,23.61
2022-08-03T07:42:58.350Z,23.73
2022-08-03T07:45:26.414Z,23.92
2022-08-03T07:47:53.580Z,24.08
2022-08-03T07:50:21.002Z,24.33
2022-08-03T07:52:51.681Z,24.49
2022-08-03T07:55:20.551Z,24.58
2022-08-03T07:57:48.066Z,24.68
2022-08-03T08:00:17.457Z,24.63
2022-08-03T08:02:44.547Z,24.63
2022-08-03T08:05:12.552Z,24.82
2022-08-03T08:07:39.892Z,24.60
2022-08-03T08:10:10.564Z,24.74
2022-08-03T08:12:39.262Z,24.69
2022-08-03T08:15:06.933Z,24.74
2022-08-03T08:17:54.711Z,24.72
2022-08-03T08:20:28.310Z,24.71
2022-08-03T08:22:59.121Z,24.77
2022-08-03T08:25:28.249Z,24.82
2022-08-03T08:28:29.547Z,24.91
2022-08-03T08:30:41.379Z,25.03
2022-08-03T08:33:08.749Z,24.90
2022-08-03T08:35:48.877Z,25.05
2022-08-03T08:38:15.326Z,24.95
2022-08-03T08:40:41.784Z,24.99
2022-08-03T08:43:08.281Z,25.08
2022-08-03T08:45:35.071Z,25.16
2022-08-03T08:48:07.871Z,25.20
2022-08-03T08:50:37.475Z,25.30
2022-08-03T08:53:07.041Z,25.36
2022-08-03T08:55:59.251Z,25.34
2022-08-03T08:58:24.471Z,25.64
2022-08-03T09:00:51.555Z,25.42
2022-08-03T09:03:29.169Z,25.25
2022-08-03T09:05:58.995Z,25.31
2022-08-03T09:08:25.978Z,25.35
2022-08-03T09:10:52.517Z,25.70
2022-08-03T09:13:19.458Z,25.64
2022-08-03T09:15:57.274Z,25.82
2022-08-03T09:18:32.536Z,25.97
2022-08-03T09:21:38.301Z,26.13
2022-08-03T09:24:13.025Z,26.10
2022-08-03T09:26:53.765Z,25.91
2022-08-03T09:29:21.713Z,25.93
2022-08-03T09:31:48.297Z,25.95
2022-08-03T09:34:17.510Z,25.84
2022-08-03T09:36:49.113Z,25.85
2022-08-03T09:39:40.823Z,26.00
2022-08-03T09:42:23.942Z,26.05
2022-08-03T09:44:52.226Z,26.21
2022-08-03T09:47:29.460Z,26.36
2022-08-03T09:50:02.141Z,26.21
2022-08-03T09:52:49.641Z,26.25
2022-08-03T09:56:30.666Z,26.29
2022-08-03T09:58:09.446Z,26.10
2022-08-03T10:00:54.784Z,26.31
2022-08-03T10:03:22.256Z,26.25
2022-08-03T10:05:48.721Z,26.12
2022-08-03T10:08:17.051Z,26.45
2022-08-03T10:10:45.502Z,26.52
2022-08-03T10:13:14.151Z,26.56
2022-08-03T10:16:23.662Z,26.58
2022-08-03T10:18:27.701Z,26.68
2022-08-03T10:20:58.954Z,26.77
2022-08-03T10:23:25.670Z,26.75
2022-08-03T10:25:57.876Z,26.67
2022-08-03T10:28:24.916Z,26.79
2022-08-03T10:30:54.976Z,26.94
2022-08-03T10:33:49.814Z,26.80
2022-08-03T10:36:14.258Z,26.90
2022-08-03T10:38:47.772Z,27.26
2022-08-03T10:41:16.735Z,27.08
2022-08-03T10:43:52.923Z,27.46
2022-08-03T10:46:21.237Z,27.35
2022-08-03T10:48:50.582Z,27.60
2022-08-03T10:51:17.362Z,27.98
2022-08-03T10:53:51.504Z,28.15
2022-08-03T10:56:53.549Z,27.98
2022-08-03T10:59:46.137Z,28.25
2022-08-03T11:02:15.855Z,28.43
2022-08-03T11:04:42.821Z,29.09
2022-08-03T11:07:18.724Z,29.15
2022-08-03T11:09:48.637Z,29.29
2022-08-03T11:12:32.797Z,29.44
2022-08-03T11:15:02.779Z,31.08
2022-08-03T11:17:29.641Z,31.21
2022-08-03T11:19:57.494Z,30.85
2022-08-03T11:22:25.357Z,31.02
2022-08-03T11:24:54.055Z,31.13
2022-08-03T11:27:25.059Z,30.28
2022-08-03T11:30:11.092Z,29.74
2022-08-03T11:32:37.527Z,29.31
2022-08-03T11:35:09.038Z,29.72
2022-08-03T11:37:36.319Z,30.50
2022-08-03T11:40:03.797Z,30.50
2022-08-03T11:42:33.225Z,29.85
2022-08-03T11:45:00.819Z,30.63
2022-08-03T11:47:29.541Z,31.67
2022-08-03T11:50:00.099Z,31.00
2022-08-03T11:52:28.831Z,31.58
2022-08-03T11:54:56.701Z,30.92
2022-08-03T11:58:58.163Z,30.15
2022-08-03T12:00:25.992Z,30.48
2022-08-03T12:03:13.660Z,30.42
2022-08-03T12:05:51.272Z,30.39
2022-08-03T12:08:27.863Z,29.89
2022-08-03T12:10:56.312Z,30.97
2022-08-03T12:14:27.419Z,30.58
2022-08-03T12:16:10.683Z,31.60
2022-08-03T12:18:37.524Z,32.12
2022-08-03T12:21:10.335Z,32.07
2022-08-03T12:23:38.472Z,32.36
2022-08-03T12:26:10.129Z,32.95
2022-08-03T12:28:38.416Z,32.60
2022-08-03T12:31:11.805Z,33.03
2022-08-03T12:34:07.931Z,33.15
2022-08-03T12:36:35.667Z,32.85
2022-08-03T12:39:05.778Z,33.49
2022-08-03T12:41:35.314Z,34.14
2022-08-03T12:44:03.639Z,34.58
2022-08-03T12:46:46.970Z,35.35
2022-08-03T12:49:17.133Z,32.92
2022-08-03T12:51:43.613Z,33.07
2022-08-03T12:54:17.468Z,33.55
2022-08-03T12:57:03.767Z,32.28
2022-08-03T12:59:53.788Z,31.78
2022-08-03T13:02:26.284Z,33.75
2022-08-03T13:04:54.859Z,32.02
2022-08-03T13:07:22.307Z,31.59
2022-08-03T13:09:51.286Z,31.18
2022-08-03T13:12:20.961Z,31.09
2022-08-03T13:14:50.054Z,31.43
2022-08-03T13:17:17.015Z,31.21
2022-08-03T13:19:43.790Z,31.26
2022-08-03T13:22:22.075Z,32.12
2022-08-03T13:24:52.803Z,32.07
2022-08-03T13:28:09.863Z,31.93
2022-08-03T13:30:07.719Z,32.20
2022-08-03T13:32:34.562Z,32.12
2022-08-03T13:35:02.749Z,32.00
2022-08-03T13:37:32.356Z,32.30
2022-08-03T13:40:02.953Z,32.12
2022-08-03T13:42:32.419Z,32.40
2022-08-03T13:44:59.429Z,32.56
2022-08-03T13:47:26.808Z,33.03
2022-08-03T13:49:56.945Z,32.98
2022-08-03T13:52:29.319Z,31.64
2022-08-03T13:54:55.768Z,31.07
2022-08-03T13:58:06.505Z,32.70
2022-08-03T14:00:09.612Z,33.89
2022-08-03T14:02:37.936Z,33.00
2022-08-03T14:05:04.772Z,32.96
2022-08-03T14:07:31.284Z,34.00
2022-08-03T14:09:57.789Z,35.17
2022-08-03T14:12:24.256Z,35.53
2022-08-03T14:14:50.726Z,34.02
2022-08-03T14:17:17.281Z,32.26
2022-08-03T14:19:53.490Z,32.43
2022-08-03T14:22:21.102Z,33.73
2022-08-03T14:24:47.712Z,35.68
2022-08-03T14:27:16.425Z,33.75
2022-08-03T14:29:43.055Z,33.13
2022-08-03T14:32:13.151Z,35.24
2022-08-03T14:34:40.925Z,37.37
2022-08-03T14:37:07.710Z,36.69
2022-08-03T14:42:21.455Z,31.82
2022-08-03T14:44:48.003Z,31.12
2022-08-03T14:47:14.814Z,31.40
2022-08-03T14:50:32.631Z,33.12
2022-08-03T14:52:28.217Z,32.75
2022-08-03T14:54:54.748Z,31.27
2022-08-03T14:57:21.487Z,30.49
2022-08-03T14:59:55.627Z,31.60
2022-08-03T15:02:25.055Z,33.88
2022-08-03T15:04:52.503Z,33.33
2022-08-03T15:07:20.345Z,32.61
2022-08-03T15:09:47.226Z,32.13
2022-08-03T15:12:13.937Z,32.84
2022-08-03T15:14:40.449Z,33.62
2022-08-03T15:17:07.527Z,32.57
2022-08-03T15:20:02.293Z,32.52
2022-08-03T15:22:24.779Z,30.81
2022-08-03T15:24:51.687Z,30.22
2022-08-03T15:27:18.323Z,31.24
2022-08-03T15:30:06.029Z,32.19
2022-08-03T15:32:31.453Z,32.22
2022-08-03T15:34:58.011Z,32.32
2022-08-03T15:37:25.795Z,32.45
2022-08-03T15:39:59.805Z,32.48
2022-08-03T15:42:27.044Z,32.69
2022-08-03T15:44:54.470Z,33.31
2022-08-03T15:47:21.519Z,32.99
2022-08-03T15:49:48.230Z,31.53
2022-08-03T15:52:14.671Z,31.99
2022-08-03T15:54:41.290Z,31.95
2022-08-03T15:57:07.824Z,31.63
2022-08-03T15:59:34.382Z,31.62
2022-08-03T16:02:00.956Z,31.72
2022-08-03T16:04:27.543Z,32.67
2022-08-03T16:06:54.058Z,32.85
2022-08-03T16:09:23.899Z,33.47
2022-08-03T16:12:14.509Z,32.78
2022-08-03T16:14:51.955Z,32.40
2022-08-03T16:17:20.417Z,31.20
2022-08-03T16:19:47.162Z,31.19
2022-08-03T16:22:14.351Z,31.74
2022-08-03T16:24:41.241Z,31.70
2022-08-03T16:27:22.372Z,31.62
2022-08-03T16:29:54.306Z,32.19
2022-08-03T16:32:20.867Z,33.79
2022-08-03T16:34:48.166Z,33.18
2022-08-03T16:37:37.533Z,32.07
2022-08-03T16:40:02.596Z,32.56
2022-08-03T16:42:29.579Z,32.72
2022-08-03T16:44:56.040Z,33.16
2022-08-03T16:47:23.024Z,32.53
2022-08-03T16:49:54.965Z,32.96
2022-08-03T16:52:23.670Z,34.20
2022-08-03T16:54:52.877Z,33.95
2022-08-03T16:57:55.773Z,34.29
2022-08-03T17:00:10.356Z,35.11
2022-08-03T17:02:37.781Z,35.62
2022-08-03T17:05:04.802Z,35.05
2022-08-03T17:07:31.281Z,34.28
2022-08-03T17:09:58.047Z,33.59
2022-08-03T17:12:26.935Z,34.04
2022-08-03T17:14:54.253Z,34.82
2022-08-03T17:17:30.101Z,36.40
2022-08-03T17:20:11.687Z,35.78
2022-08-03T17:23:06.687Z,35.51
2022-08-03T17:26:02.406Z,32.67
2022-08-03T17:28:48.180Z,32.30
2022-08-03T17:31:23.554Z,32.58
2022-08-03T17:34:00.697Z,32.13
2022-08-03T17:36:47.685Z,33.37
2022-08-03T17:39:30.933Z,32.60
2022-08-03T17:42:31.163Z,33.46
2022-08-03T17:44:55.254Z,34.46
2022-08-03T17:47:22.927Z,32.83
2022-08-03T17:49:56.856Z,32.80
2022-08-03T17:52:48.370Z,31.22
2022-08-03T17:55:56.823Z,30.59
2022-08-03T17:58:25.533Z,29.40
2022-08-03T18:01:56.948Z,29.33
2022-08-03T18:04:10.627Z,28.77
2022-08-03T18:06:55.641Z,28.67
2022-08-03T18:10:04.729Z,27.69
2022-08-03T18:12:24.298Z,27.81
2022-08-03T18:15:01.213Z,27.66
2022-08-03T18:17:55.428Z,27.31
2022-08-03T18:20:32.145Z,27.04
2022-08-03T18:23:04.781Z,26.89
2022-08-03T18:25:42.297Z,26.73
2022-08-03T18:28:16.587Z,26.74
2022-08-03T18:30:54.010Z,27.00
2022-08-03T18:34:20.036Z,26.82
2022-08-03T18:36:18.061Z,26.52
2022-08-03T18:38:50.955Z,26.50
2022-08-03T18:41:31.817Z,25.76
2022-08-03T18:44:07.901Z,25.99
2022-08-03T18:46:50.309Z,25.86
2022-08-03T18:49:45.670Z,25.63
2022-08-03T18:52:26.879Z,25.35
2022-08-03T18:55:14.069Z,25.10
2022-08-03T18:57:55.434Z,24.98
2022-08-03T19:00:42.700Z,24.97
2022-08-03T19:03:20.446Z,24.86
2022-08-03T19:06:05.948Z,24.74
2022-08-03T19:08:47.851Z,24.20
2022-08-03T19:11:28.259Z,23.96
2022-08-03T19:13:59.186Z,23.80
2022-08-03T19:16:35.822Z,23.62
2022-08-03T19:19:10.338Z,23.50
2022-08-03T19:21:41.189Z,23.68
2022-08-03T19:24:09.910Z,23.51
2022-08-03T19:26:39.560Z,23.43
2022-08-03T19:29:10.838Z,23.46
2022-08-03T19:31:58.771Z,23.43
2022-08-03T19:34:29.191Z,23.25
2022-08-03T19:36:58.508Z,23.03
2022-08-03T19:39:25.741Z,22.92
2022-08-03T19:42:07.962Z,22.61
2022-08-03T19:44:42.845Z,22.50
2022-08-03T19:47:20.063Z,22.25
2022-08-03T19:50:10.313Z,22.32
2022-08-03T19:52:39.442Z,22.21
2022-08-03T19:55:12.362Z,22.19
2022-08-03T19:57:42.228Z,22.02
2022-08-03T20:00:12.469Z,21.86
2022-08-03T20:02:41.466Z,21.68
2022-08-03T20:05:15.120Z,21.83
2022-08-03T20:07:47.808Z,21.67
2022-08-03T20:10:16.119Z,21.74
2022-08-03T20:12:44.106Z,21.91
2022-08-03T20:15:11.152Z,21.69
2022-08-03T20:17:56.418Z,21.55
2022-08-03T20:20:28.699Z,21.38
2022-08-03T20:22:57.936Z,21.20
2022-08-03T20:25:38.349Z,21.13
2022-08-03T20:28:15.068Z,21.35
2022-08-03T20:30:43.751Z,21.10
2022-08-03T20:33:10.529Z,21.08
2022-08-03T20:35:37.147Z,20.94
2022-08-03T20:38:03.739Z,20.83
2022-08-03T20:40:30.253Z,20.80
2022-08-03T20:42:56.875Z,20.74
2022-08-03T20:45:58.512Z,20.65
2022-08-03T20:48:10.575Z,20.54
2022-08-03T20:50:40.888Z,20.59
2022-08-03T20:53:12.021Z,20.53
2022-08-03T20:55:47.608Z,20.47
2022-08-03T20:58:25.699Z,20.43
2022-08-03T21:00:54.345Z,20.35
2022-08-03T21:03:20.741Z,20.35
2022-08-03T21:05:51.841Z,20.27
2022-08-03T21:08:22.501Z,20.13
2022-08-03T21:10:52.617Z,19.99
2022-08-03T21:13:29.172Z,20.01
2022-08-03T21:16:13.101Z,20.02
2022-08-03T21:18:52.755Z,19.99
2022-08-03T21:21:22.311Z,19.96
2022-08-03T21:23:53.693Z,19.88
2022-08-03T21:26:22.913Z,19.86
2022-08-03T21:28:51.431Z,19.78
2022-08-03T21:31:25.203Z,19.69
2022-08-03T21:34:04.327Z,19.67
2022-08-03T21:36:34.915Z,19.65
2022-08-03T21:39:03.273Z,19.62
2022-08-03T21:41:31.904Z,19.60
2022-08-03T21:43:59.668Z,19.52
2022-08-03T21:46:28.853Z,19.46
2022-08-03T21:50:05.315Z,19.44
2022-08-03T21:51:49.373Z,19.40
2022-08-03T21:54:17.723Z,19.41
2022-08-03T21:56:48.023Z,19.33
2022-08-03T21:59:19.652Z,19.27
2022-08-03T22:01:48.834Z,19.21
2022-08-03T22:04:50.387Z,19.21
2022-08-03T22:07:07.735Z,19.21
2022-08-03T22:09:35.519Z,19.21
2022-08-03T22:12:02.084Z,19.28
2022-08-03T22:14:29.790Z,19.22
2022-08-03T22:16:56.598Z,19.13
2022-08-03T22:19:23.127Z,19.12
2022-08-03T22:21:50.055Z,19.03
2022-08-03T22:24:19.700Z,19.05
2022-08-03T22:27:09.802Z,19.04
2022-08-03T22:29:38.328Z,18.96
2022-08-03T22:32:04.962Z,18.91
2022-08-03T22:34:31.584Z,18.91
2022-08-03T22:37:04.960Z,18.89
2022-08-03T22:39:32.154Z,18.87
2022-08-03T22:41:59.278Z,18.85
2022-08-03T22:44:27.491Z,18.83
2022-08-03T22:46:53.985Z,18.81
2022-08-03T22:49:20.949Z,18.73
2022-08-03T22:51:48.364Z,18.65
2022-08-03T22:54:16.137Z,18.60
2022-08-03T22:56:43.379Z,18.70
2022-08-03T22:59:41.162Z,18.71
2022-08-03T23:02:01.898Z,18.61
2022-08-03T23:04:44.211Z,18.58
2022-08-03T23:07:15.073Z,18.61
2022-08-03T23:09:44.615Z,18.58
2022-08-03T23:12:15.215Z,18.57
2022-08-03T23:14:44.272Z,18.60
2022-08-03T23:17:11.966Z,18.53
2022-08-03T23:19:44.615Z,18.52
2022-08-03T23:22:29.390Z,18.47
2022-08-03T23:24:58.780Z,18.46
2022-08-03T23:27:26.454Z,18.46
2022-08-03T23:29:54.210Z,18.44
2022-08-03T23:32:21.081Z,18.38
2022-08-03T23:35:07.680Z,18.35
2022-08-03T23:37:34.904Z,18.36
2022-08-03T23:40:24.727Z,18.30
2022-08-03T23:42:51.926Z,18.30
2022-08-03T23:45:20.767Z,18.20
2022-08-03T23:47:48.362Z,18.17
2022-08-03T23:50:15.170Z,18.20
2022-08-03T23:52:47.602Z,18.23
2022-08-03T23:55:17.210Z,18.26
2022-08-03T23:58:04.952Z,18.26
